createdAt,value
2017-08-01T00:03:33.182Z,84.70
2017-08-01T00:06:09.831Z,84.70
2017-08-01T00:08:38.104Z,85.30
2017-08-01T00:11:06.323Z,84.20
2017-08-01T00:13:34.560Z,82.50
2017-08-01T00:16:02.821Z,83.80
2017-08-01T00:21:32.513Z,78.80
2017-08-01T00:24:00.730Z,77.70
2017-08-01T00:26:29.724Z,77.90
2017-08-01T00:29:10.946Z,77.80
2017-08-01T00:31:39.185Z,81.80
2017-08-01T00:34:11.116Z,79.20
2017-08-01T00:36:39.333Z,80.20
2017-08-01T00:39:07.569Z,85.60
2017-08-01T00:41:36.610Z,89.50
2017-08-01T00:44:04.850Z,89.50
2017-08-01T00:46:33.836Z,88.70
2017-08-01T00:49:02.873Z,90.30
2017-08-01T00:51:31.084Z,90.30
2017-08-01T00:53:59.306Z,91.20
2017-08-01T00:59:18.802Z,93.50
2017-08-01T01:02:08.445Z,93.50
2017-08-01T01:04:37.546Z,94.30
2017-08-01T01:07:06.589Z,93.20
2017-08-01T01:09:34.811Z,93.10
2017-08-01T01:12:10.361Z,94.40
2017-08-01T01:14:39.364Z,93.90
2017-08-01T01:17:07.589Z,93.80
2017-08-01T01:19:35.849Z,93.70
2017-08-01T01:22:04.089Z,94.70
2017-08-01T01:24:32.316Z,92.40
2017-08-01T01:27:00.577Z,90.80
2017-08-01T01:32:28.667Z,88.70
2017-08-01T01:34:56.874Z,89.80
2017-08-01T01:37:25.099Z,89.30
2017-08-01T01:39:53.380Z,90.20
2017-08-01T01:42:21.616Z,92.40
2017-08-01T01:44:50.597Z,91.20
2017-08-01T01:47:19.648Z,90.20
2017-08-01T01:49:47.864Z,90.20
2017-08-01T01:52:16.084Z,90.20
2017-08-01T01:54:44.344Z,90.60
2017-08-01T01:57:12.559Z,91.00
2017-08-01T01:59:40.791Z,90.80
2017-08-01T02:02:09.042Z,90.20
2017-08-01T02:04:38.026Z,89.80
2017-08-01T02:07:09.982Z,89.80
2017-08-01T02:09:38.219Z,91.10
2017-08-01T02:12:10.027Z,92.90
2017-08-01T02:14:39.011Z,94.60
2017-08-01T02:17:07.252Z,94.30
2017-08-01T02:19:35.524Z,96.30
2017-08-01T02:22:03.763Z,95.50
2017-08-01T02:24:31.985Z,93.30
2017-08-01T02:27:00.251Z,92.70
2017-08-01T02:29:28.510Z,92.50
2017-08-01T02:31:56.732Z,95.60
2017-08-01T02:37:25.834Z,96.10
2017-08-01T02:40:10.664Z,98.30
2017-08-01T02:42:38.925Z,98.20
2017-08-01T02:45:07.397Z,99.90
2017-08-01T02:47:36.398Z,99.90
2017-08-01T02:50:04.672Z,99.90
2017-08-01T02:52:32.888Z,99.90
2017-08-01T02:55:01.115Z,99.90
2017-08-01T02:57:30.150Z,99.90
2017-08-01T02:59:58.382Z,99.90
2017-08-01T03:05:27.643Z,99.90
2017-08-01T03:07:55.897Z,99.90
2017-08-01T03:10:24.150Z,99.90
2017-08-01T03:12:53.174Z,99.90
2017-08-01T03:15:21.396Z,99.90
2017-08-01T03:17:49.613Z,99.90
2017-08-01T03:20:17.869Z,99.90
2017-08-01T03:22:46.853Z,99.90
2017-08-01T03:25:15.855Z,99.90
2017-08-01T03:27:44.872Z,99.90
2017-08-01T03:33:13.309Z,99.90
2017-08-01T03:35:41.532Z,99.90
2017-08-01T03:38:09.746Z,99.90
2017-08-01T03:40:38.127Z,99.90
2017-08-01T03:43:06.352Z,99.90
2017-08-01T03:45:34.598Z,99.90
2017-08-01T03:48:02.863Z,99.90
2017-08-01T03:50:31.083Z,99.90
2017-08-01T03:52:59.310Z,99.90
2017-08-01T03:55:27.567Z,99.90
2017-08-01T03:58:09.065Z,99.90
2017-08-01T04:00:37.327Z,99.90
2017-08-01T04:03:11.725Z,99.90
2017-08-01T04:05:40.002Z,99.90
2017-08-01T04:08:08.245Z,99.90
2017-08-01T04:10:37.255Z,99.90
2017-08-01T04:13:11.497Z,99.90
2017-08-01T04:15:39.757Z,99.90
2017-08-01T04:18:09.875Z,99.90
2017-08-01T04:20:38.126Z,99.90
2017-08-01T04:23:07.123Z,99.90
2017-08-01T04:25:36.124Z,99.90
2017-08-01T04:28:04.392Z,99.90
2017-08-01T04:30:32.611Z,99.90
2017-08-01T04:33:00.860Z,99.90
2017-08-01T04:35:29.133Z,99.90
2017-08-01T04:37:57.357Z,99.90
2017-08-01T04:43:26.278Z,99.90
2017-08-01T04:46:09.371Z,99.90
2017-08-01T04:48:37.625Z,99.90
2017-08-01T04:51:05.870Z,99.90
2017-08-01T04:53:34.880Z,99.90
2017-08-01T04:56:03.155Z,99.90
2017-08-01T04:58:31.383Z,99.90
2017-08-01T05:00:59.618Z,99.90
2017-08-01T05:03:27.883Z,99.90
2017-08-01T05:05:56.112Z,99.90
2017-08-01T05:11:25.807Z,99.90
2017-08-01T05:14:08.921Z,99.90
2017-08-01T05:16:37.207Z,99.90
2017-08-01T05:19:05.453Z,99.90
2017-08-01T05:21:33.667Z,99.90
2017-08-01T05:24:01.936Z,99.90
2017-08-01T05:26:30.172Z,99.90
2017-08-01T05:28:58.416Z,99.90
2017-08-01T05:31:26.669Z,99.90
2017-08-01T05:33:54.886Z,99.90
2017-08-01T05:36:23.873Z,99.90
2017-08-01T05:38:52.905Z,99.90
2017-08-01T05:41:21.146Z,99.90
2017-08-01T05:43:50.139Z,99.90
2017-08-01T05:46:19.470Z,99.90
2017-08-01T05:48:47.685Z,99.90
2017-08-01T05:51:15.910Z,99.90
2017-08-01T05:53:44.174Z,99.90
2017-08-01T05:56:12.397Z,99.90
2017-08-01T05:58:40.627Z,99.90
2017-08-01T06:01:08.902Z,99.90
2017-08-01T06:03:37.127Z,99.90
2017-08-01T06:06:11.183Z,99.90
2017-08-01T06:08:40.179Z,99.90
2017-08-01T06:11:08.415Z,99.90
2017-08-01T06:13:36.696Z,99.90
2017-08-01T06:16:04.908Z,99.90
2017-08-01T06:18:33.142Z,99.90
2017-08-01T06:21:01.401Z,99.90
2017-08-01T06:23:29.625Z,99.90
2017-08-01T06:25:58.633Z,99.90
2017-08-01T06:28:29.801Z,99.90
2017-08-01T06:30:58.017Z,99.90
2017-08-01T06:33:26.998Z,99.90
2017-08-01T06:35:55.414Z,99.90
2017-08-01T06:38:23.653Z,99.90
2017-08-01T06:40:51.881Z,99.90
2017-08-01T06:43:20.152Z,99.90
2017-08-01T06:45:48.387Z,99.90
2017-08-01T06:48:16.609Z,99.90
2017-08-01T06:50:44.888Z,99.90
2017-08-01T06:53:13.109Z,99.90
2017-08-01T06:55:41.334Z,99.90
2017-08-01T06:58:09.604Z,99.90
2017-08-01T07:00:37.823Z,99.90
2017-08-01T07:03:06.046Z,99.90
2017-08-01T07:05:34.311Z,99.90
2017-08-01T07:08:02.540Z,99.90
2017-08-01T07:10:30.781Z,99.90
2017-08-01T07:12:59.033Z,99.80
2017-08-01T07:18:27.841Z,99.80
2017-08-01T07:21:09.716Z,98.90
2017-08-01T07:23:38.745Z,96.30
2017-08-01T07:26:06.971Z,96.10
2017-08-01T07:28:35.207Z,96.60
2017-08-01T07:31:03.489Z,96.90
2017-08-01T07:33:31.735Z,95.70
2017-08-01T07:35:59.969Z,96.20
2017-08-01T07:38:28.226Z,96.10
2017-08-01T07:40:56.467Z,94.80
2017-08-01T07:46:25.308Z,93.70
2017-08-01T07:48:53.534Z,94.10
2017-08-01T07:51:21.775Z,94.10
2017-08-01T07:53:50.051Z,92.30
2017-08-01T07:56:18.296Z,92.20
2017-08-01T07:58:46.547Z,91.30
2017-08-01T08:01:14.831Z,90.50
2017-08-01T08:03:43.085Z,90.10
2017-08-01T08:06:11.321Z,91.40
2017-08-01T08:08:39.612Z,89.40
2017-08-01T08:11:07.868Z,90.50
2017-08-01T08:13:36.114Z,90.20
2017-08-01T08:16:04.406Z,92.10
2017-08-01T08:18:32.638Z,91.90
2017-08-01T08:21:00.894Z,91.80
2017-08-01T08:23:29.963Z,91.80
2017-08-01T08:26:10.775Z,91.80
2017-08-01T08:28:39.028Z,92.20
2017-08-01T08:31:08.039Z,91.90
2017-08-01T08:33:37.050Z,91.50
2017-08-01T08:36:05.336Z,91.50
2017-08-01T08:38:33.582Z,92.70
2017-08-01T08:41:10.472Z,93.20
2017-08-01T08:43:38.711Z,93.40
2017-08-01T08:46:06.963Z,91.20
2017-08-01T08:48:35.255Z,89.90
2017-08-01T08:51:03.495Z,89.30
2017-08-01T08:56:32.906Z,85.30
2017-08-01T08:59:01.161Z,85.30
2017-08-01T09:01:29.386Z,85.60
2017-08-01T09:03:57.665Z,88.50
2017-08-01T09:06:25.894Z,85.10
2017-08-01T09:08:54.140Z,84.00
2017-08-01T09:11:22.453Z,81.90
2017-08-01T09:14:10.221Z,81.90
2017-08-01T09:16:38.479Z,80.80
2017-08-01T09:19:06.726Z,80.20
2017-08-01T09:24:35.032Z,78.60
2017-08-01T09:27:10.074Z,77.80
2017-08-01T09:29:38.371Z,77.50
2017-08-01T09:32:06.661Z,75.10
2017-08-01T09:34:34.888Z,74.50
2017-08-01T09:37:03.154Z,74.30
2017-08-01T09:39:31.395Z,72.50
2017-08-01T09:41:59.652Z,74.30
2017-08-01T09:44:27.928Z,72.60
2017-08-01T09:46:56.149Z,72.40
2017-08-01T09:49:25.151Z,71.80
2017-08-01T09:51:53.575Z,71.90
2017-08-01T09:54:21.780Z,71.10
2017-08-01T09:56:50.793Z,69.10
2017-08-01T09:59:19.087Z,69.00
2017-08-01T10:01:47.332Z,68.60
2017-08-01T10:04:15.570Z,66.80
2017-08-01T10:06:43.837Z,67.20
2017-08-01T10:09:12.085Z,65.30
2017-08-01T10:11:40.317Z,67.30
2017-08-01T10:14:09.361Z,66.00
2017-08-01T10:19:38.598Z,63.30
2017-08-01T10:22:06.833Z,63.20
2017-08-01T10:24:35.072Z,63.90
2017-08-01T10:27:03.377Z,62.60
2017-08-01T10:29:32.357Z,62.00
2017-08-01T10:32:11.488Z,58.60
2017-08-01T10:34:39.723Z,58.10
2017-08-01T10:37:07.955Z,58.70
2017-08-01T10:39:36.240Z,58.70
2017-08-01T10:42:04.474Z,58.50
2017-08-01T10:44:32.751Z,58.90
2017-08-01T10:47:01.031Z,56.70
2017-08-01T10:49:29.267Z,56.80
2017-08-01T10:52:10.075Z,57.60
2017-08-01T10:54:38.300Z,55.20
2017-08-01T10:57:06.558Z,54.50
2017-08-01T11:02:35.554Z,54.30
2017-08-01T11:05:03.776Z,54.90
2017-08-01T11:07:32.023Z,54.30
2017-08-01T11:10:00.290Z,53.40
2017-08-01T11:12:28.522Z,53.80
2017-08-01T11:14:56.754Z,53.10
2017-08-01T11:17:25.014Z,52.60
2017-08-01T11:19:53.241Z,54.00
2017-08-01T11:22:21.467Z,53.50
2017-08-01T11:24:49.774Z,55.20
2017-08-01T11:27:18.002Z,53.50
2017-08-01T11:29:46.245Z,53.30
2017-08-01T11:32:14.508Z,53.10
2017-08-01T11:35:08.882Z,52.10
2017-08-01T11:37:37.182Z,52.50
2017-08-01T11:40:11.497Z,53.40
2017-08-01T11:42:39.755Z,52.60
2017-08-01T11:45:07.987Z,52.10
2017-08-01T11:47:36.236Z,52.70
2017-08-01T11:50:04.514Z,54.10
2017-08-01T11:52:32.767Z,52.10
2017-08-01T11:55:00.988Z,53.00
2017-08-01T11:57:29.275Z,53.00
2017-08-01T12:00:15.592Z,51.80
2017-08-01T12:02:43.870Z,48.00
2017-08-01T12:05:12.097Z,46.90
2017-08-01T12:08:08.992Z,45.70
2017-08-01T12:10:37.229Z,47.30
2017-08-01T12:13:05.467Z,48.00
2017-08-01T12:15:33.754Z,47.00
2017-08-01T12:18:01.996Z,48.90
2017-08-01T12:20:31.015Z,48.60
2017-08-01T12:22:59.285Z,48.00
2017-08-01T12:25:27.507Z,45.20
2017-08-01T12:27:55.751Z,45.10
2017-08-01T12:33:24.946Z,45.80
2017-08-01T12:35:53.186Z,45.70
2017-08-01T12:38:21.445Z,45.50
2017-08-01T12:40:50.487Z,44.40
2017-08-01T12:43:18.738Z,44.20
2017-08-01T12:45:47.001Z,43.60
2017-08-01T12:48:15.291Z,44.20
2017-08-01T12:50:43.542Z,43.20
2017-08-01T12:53:12.536Z,42.90
2017-08-01T12:55:41.529Z,42.90
2017-08-01T12:58:09.763Z,42.40
2017-08-01T13:00:38.005Z,42.50
2017-08-01T13:03:12.096Z,42.10
2017-08-01T13:05:40.338Z,41.60
2017-08-01T13:08:08.558Z,42.20
2017-08-01T13:10:37.750Z,42.60
2017-08-01T13:13:05.996Z,42.20
2017-08-01T13:15:35.266Z,41.70
2017-08-01T13:18:03.557Z,42.00
2017-08-01T13:20:31.793Z,41.70
2017-08-01T13:25:38.100Z,41.50
2017-08-01T13:28:06.326Z,41.60
2017-08-01T13:30:34.555Z,41.90
2017-08-01T13:33:02.846Z,42.60
2017-08-01T13:35:31.074Z,42.10
2017-08-01T13:37:59.318Z,39.80
2017-08-01T13:43:28.465Z,40.40
2017-08-01T13:46:09.315Z,40.20
2017-08-01T13:48:38.447Z,38.80
2017-08-01T13:51:06.677Z,38.50
2017-08-01T13:53:34.914Z,39.10
2017-08-01T13:56:03.576Z,38.80
2017-08-01T13:58:31.812Z,38.50
2017-08-01T14:01:09.739Z,36.50
2017-08-01T14:03:37.982Z,37.10
2017-08-01T14:06:06.211Z,37.60
2017-08-01T14:08:34.477Z,36.80
2017-08-01T14:11:02.706Z,34.80
2017-08-01T14:16:31.409Z,34.50
2017-08-01T14:18:59.659Z,33.30
2017-08-01T14:21:27.894Z,32.30
2017-08-01T14:23:56.165Z,33.10
2017-08-01T14:26:24.392Z,33.70
2017-08-01T14:29:09.510Z,33.20
2017-08-01T14:31:37.747Z,32.70
2017-08-01T14:34:06.742Z,34.10
2017-08-01T14:42:36.123Z,34.10
2017-08-01T14:45:04.365Z,34.50
2017-08-01T14:47:33.351Z,34.40
2017-08-01T14:50:01.655Z,34.40
2017-08-01T14:52:29.889Z,33.90
2017-08-01T14:54:58.130Z,33.60
2017-08-01T15:00:26.294Z,33.00
2017-08-01T15:02:54.526Z,31.70
2017-08-01T15:05:22.777Z,32.80
2017-08-01T15:08:10.638Z,32.70
2017-08-01T15:11:08.892Z,34.30
2017-08-01T15:13:37.167Z,33.30
2017-08-01T15:16:05.408Z,34.10
2017-08-01T15:18:33.656Z,34.20
2017-08-01T15:21:02.730Z,33.60
2017-08-01T15:23:30.988Z,33.60
2017-08-01T15:25:59.216Z,34.50
2017-08-01T15:28:27.485Z,34.60
2017-08-01T15:30:56.482Z,34.20
2017-08-01T15:33:24.731Z,34.30
2017-08-01T15:35:53.768Z,34.40
2017-08-01T15:40:57.038Z,33.80
2017-08-01T15:43:25.270Z,33.80
2017-08-01T15:45:53.488Z,33.00
2017-08-01T15:48:22.403Z,32.50
2017-08-01T15:50:50.638Z,32.70
2017-08-01T15:53:18.872Z,32.40
2017-08-01T15:55:47.142Z,33.70
2017-08-01T15:58:15.381Z,32.80
2017-08-01T16:00:44.378Z,33.70
2017-08-01T16:06:12.542Z,33.20
2017-08-01T16:08:40.761Z,34.80
2017-08-01T16:11:08.988Z,35.20
2017-08-01T16:13:37.270Z,34.70
2017-08-01T16:16:05.511Z,34.20
2017-08-01T16:18:33.738Z,34.90
2017-08-01T16:21:02.792Z,35.10
2017-08-01T16:23:31.022Z,35.00
2017-08-01T16:25:59.255Z,36.30
2017-08-01T16:28:27.521Z,36.30
2017-08-01T16:31:09.762Z,36.20
2017-08-01T16:33:38.030Z,36.40
2017-08-01T16:36:06.264Z,36.00
2017-08-01T16:38:34.504Z,36.50
2017-08-01T16:41:02.765Z,36.30
2017-08-01T16:46:31.805Z,37.10
2017-08-01T16:49:00.041Z,36.80
2017-08-01T16:51:28.282Z,37.30
2017-08-01T16:53:56.549Z,37.30
2017-08-01T16:56:24.796Z,37.10
2017-08-01T16:58:53.050Z,37.20
2017-08-01T17:01:21.301Z,38.00
2017-08-01T17:03:49.529Z,37.50
2017-08-01T17:06:17.747Z,37.80
2017-08-01T17:08:46.001Z,38.50
2017-08-01T17:11:14.251Z,38.20
2017-08-01T17:14:08.705Z,37.50
2017-08-01T17:16:36.931Z,39.00
2017-08-01T17:19:05.176Z,37.40
2017-08-01T17:21:33.461Z,39.00
2017-08-01T17:24:01.695Z,37.90
2017-08-01T17:26:29.911Z,38.40
2017-08-01T17:28:58.184Z,37.90
2017-08-01T17:31:26.432Z,38.70
2017-08-01T17:33:54.666Z,39.70
2017-08-01T17:36:22.962Z,39.70
2017-08-01T17:38:51.205Z,40.10
2017-08-01T17:41:19.428Z,39.70
2017-08-01T17:43:47.691Z,39.90
2017-08-01T17:46:15.921Z,39.60
2017-08-01T17:48:44.162Z,39.90
2017-08-01T17:51:12.410Z,39.50
2017-08-01T17:53:40.644Z,39.40
2017-08-01T17:56:08.875Z,39.20
2017-08-01T17:58:37.218Z,39.50
2017-08-01T18:01:05.447Z,40.60
2017-08-01T18:03:34.447Z,40.40
2017-08-01T18:06:02.715Z,40.30
2017-08-01T18:08:30.951Z,41.40
2017-08-01T18:11:12.222Z,40.20
2017-08-01T18:13:40.456Z,39.80
2017-08-01T18:16:08.717Z,42.00
2017-08-01T18:18:36.969Z,42.90
2017-08-01T18:21:05.183Z,41.90
2017-08-01T18:29:33.079Z,42.60
2017-08-01T18:32:01.331Z,42.80
2017-08-01T18:34:30.343Z,43.30
2017-08-01T18:37:11.517Z,43.30
2017-08-01T18:39:39.757Z,42.90
2017-08-01T18:42:07.986Z,43.00
2017-08-01T18:44:36.267Z,43.60
2017-08-01T18:47:10.434Z,43.10
2017-08-01T18:49:38.720Z,43.60
2017-08-01T18:52:11.042Z,43.40
2017-08-01T18:57:39.682Z,44.10
2017-08-01T19:00:11.191Z,44.20
2017-08-01T19:02:39.432Z,45.00
2017-08-01T19:05:10.743Z,44.70
2017-08-01T19:07:38.968Z,44.90
2017-08-01T19:10:07.199Z,45.20
2017-08-01T19:18:36.600Z,45.80
2017-08-01T19:21:04.821Z,46.40
2017-08-01T19:23:33.042Z,46.10
2017-08-01T19:26:01.347Z,45.90
2017-08-01T19:28:29.594Z,46.30
2017-08-01T19:30:57.820Z,46.00
2017-08-01T19:33:26.103Z,46.70
2017-08-01T19:36:10.731Z,46.70
2017-08-01T19:38:39.992Z,46.50
2017-08-01T19:41:08.297Z,47.50
2017-08-01T19:43:36.557Z,47.10
2017-08-01T19:46:10.738Z,46.80
2017-08-01T19:49:09.329Z,47.50
2017-08-01T19:51:38.399Z,47.70
2017-08-01T19:54:07.447Z,48.10
2017-08-01T19:59:36.075Z,47.30
2017-08-01T20:02:10.538Z,47.50
2017-08-01T20:04:38.855Z,47.60
2017-08-01T20:07:07.072Z,47.50
2017-08-01T20:09:35.397Z,48.20
2017-08-01T20:12:10.289Z,48.20
2017-08-01T20:14:38.543Z,48.90
2017-08-01T20:17:09.858Z,49.30
2017-08-01T20:19:38.142Z,49.90
2017-08-01T20:22:06.370Z,49.70
2017-08-01T20:27:36.272Z,50.60
2017-08-01T20:30:04.496Z,51.30
2017-08-01T20:32:32.722Z,52.00
2017-08-01T20:35:01.021Z,52.90
2017-08-01T20:37:30.035Z,52.70
2017-08-01T20:40:09.805Z,52.80
2017-08-01T20:42:38.095Z,52.80
2017-08-01T20:45:13.238Z,53.10
2017-08-01T20:50:42.433Z,51.90
2017-08-01T20:53:11.601Z,52.20
2017-08-01T20:58:23.587Z,52.10
2017-08-01T21:01:11.199Z,52.70
2017-08-01T21:03:39.481Z,52.60
2017-08-01T21:06:07.700Z,52.60
2017-08-01T21:08:35.949Z,52.70
2017-08-01T21:11:10.503Z,52.90
2017-08-01T21:14:09.030Z,53.00
2017-08-01T21:16:37.659Z,54.20
2017-08-01T21:19:05.902Z,53.80
2017-08-01T21:21:34.133Z,53.90
2017-08-01T21:24:09.982Z,53.30
2017-08-01T21:27:08.500Z,54.20
2017-08-01T21:35:37.437Z,53.40
2017-08-01T21:38:11.801Z,54.00
2017-08-01T21:40:40.081Z,54.60
2017-08-01T21:43:08.333Z,54.40
2017-08-01T21:45:37.345Z,55.10
2017-08-01T21:48:05.637Z,55.70
2017-08-01T21:50:33.850Z,55.30
2017-08-01T21:53:02.112Z,54.90
2017-08-01T21:58:31.163Z,53.60
2017-08-01T22:01:12.106Z,53.40
2017-08-01T22:03:40.387Z,54.00
2017-08-01T22:06:12.000Z,54.70
2017-08-01T22:08:40.261Z,56.70
2017-08-01T22:11:08.503Z,57.80
2017-08-01T22:16:36.907Z,57.00
2017-08-01T22:19:05.130Z,56.90
2017-08-01T22:21:33.440Z,56.50
2017-08-01T22:24:01.708Z,57.40
2017-08-01T22:29:31.231Z,58.80
2017-08-01T22:31:59.467Z,58.70
2017-08-01T22:34:27.716Z,61.20
2017-08-01T22:39:48.153Z,59.80
2017-08-01T22:42:16.427Z,59.80
2017-08-01T22:44:44.649Z,60.30
2017-08-01T22:47:12.930Z,65.10
2017-08-01T22:49:41.202Z,68.60
2017-08-01T22:52:11.004Z,68.40
2017-08-01T22:54:39.243Z,66.50
2017-08-01T22:57:10.421Z,62.40
2017-08-01T22:59:38.641Z,60.30
2017-08-01T23:02:07.652Z,61.40
2017-08-01T23:04:36.178Z,61.40
2017-08-01T23:07:04.408Z,61.50
2017-08-01T23:09:32.642Z,63.50
2017-08-01T23:12:12.091Z,63.90
2017-08-01T23:14:40.386Z,64.00
2017-08-01T23:17:09.405Z,69.50
2017-08-01T23:19:37.686Z,69.40
2017-08-01T23:22:05.934Z,71.40
2017-08-01T23:27:34.826Z,72.00
2017-08-01T23:30:10.704Z,69.30
2017-08-01T23:32:39.009Z,67.50
2017-08-01T23:35:10.441Z,64.20
2017-08-01T23:37:38.720Z,64.00
2017-08-01T23:40:06.966Z,65.10
2017-08-01T23:42:35.974Z,67.40
2017-08-01T23:45:04.250Z,67.40
2017-08-01T23:47:32.480Z,74.60
2017-08-01T23:50:00.714Z,81.20
2017-08-01T23:52:29.033Z,84.40
2017-08-01T23:55:09.871Z,84.90
2017-08-01T23:57:38.140Z,85.70
